Time;durP1;ratioP1;P1;durP2;ratioP2;P2;SDS_P1;SDS_P2;PMS_P1;PMS_P2;Temp;Humidity;BMP_temperature;BMP_pressure;BME280_temperature;BME280_humidity;BME280_pressure;Samples;Min_cycle;Max_cycle;Signal;HPM_P1;HPM_P2
2023/03/12 00:02:05;;;;;;;;;;;1.50;99.90;;;;;;5019827;28;19924;-92
2023/03/12 00:04:31;;;;;;;;;;;-1.30;99.90;;;;;;5051913;28;19925;-92
2023/03/12 00:06:56;;;;;;;;;;;-0.10;99.90;;;;;;5002251;28;19926;-92
2023/03/12 00:09:22;;;;;;;;;;;1.10;99.90;;;;;;5000621;28;19926;-90
2023/03/12 00:11:51;;;;;;;;;;;-1.00;99.90;;;;;;5017960;28;19929;-90
2023/03/12 00:14:16;;;;;;;;;;;-2.00;99.90;;;;;;5018641;28;19925;-91
2023/03/12 00:16:42;;;;;;;;;;;2.00;99.90;;;;;;4999847;28;19948;-91
2023/03/12 00:19:09;;;;;;;;;;;-1.30;99.90;;;;;;5016413;28;19929;-91
2023/03/12 00:21:35;;;;;;;;;;;1.40;99.90;;;;;;5034656;28;19951;-91
2023/03/12 00:24:01;;;;;;;;;;;1.40;99.90;;;;;;5049066;28;19929;-92
2023/03/12 00:26:26;;;;;;;;;;;-1.30;99.90;;;;;;5003800;28;19932;-92
2023/03/12 00:28:52;;;;;;;;;;;0.80;99.90;;;;;;5004593;28;19936;-94
2023/03/12 00:31:22;;;;;;;;;;;1.90;99.90;;;;;;5003146;28;19996;-92
2023/03/12 00:33:49;;;;;;;;;;;-1.40;99.90;;;;;;5021590;28;19933;-93
2023/03/12 00:36:15;;;;;;;;;;;0.30;99.90;;;;;;5012860;28;19929;-91
2023/03/12 00:38:41;;;;;;;;;;;-0.90;99.90;;;;;;5026873;28;19980;-92
2023/03/12 00:41:07;;;;;;;;;;;-0.70;99.90;;;;;;5033770;28;19932;-92
2023/03/12 00:43:35;;;;;;;;;;;-1.10;99.90;;;;;;5020694;28;19925;-92
2023/03/12 00:46:01;;;;;;;;;;;-1.40;99.90;;;;;;5020859;28;19925;-91
2023/03/12 00:48:26;;;;;;;;;;;-1.40;99.90;;;;;;5021225;28;19931;-91
2023/03/12 00:50:55;;;;;;;;;;;-0.60;99.90;;;;;;5021650;28;19929;-91
2023/03/12 00:53:24;;;;;;;;;;;-3.40;99.90;;;;;;5026570;28;19960;-92
2023/03/12 00:55:49;;;;;;;;;;;-3.80;99.90;;;;;;5033250;28;19928;-91
2023/03/12 00:58:15;;;;;;;;;;;-0.60;99.90;;;;;;5022915;28;19921;-92
2023/03/12 01:00:41;;;;;;;;;;;1.40;99.90;;;;;;5018983;28;19929;-92
2023/03/12 01:03:09;;;;;;;;;;;-1.40;99.90;;;;;;5011182;28;19952;-92
2023/03/12 01:05:39;;;;;;;;;;;1.70;99.90;;;;;;5012247;28;19925;-93
2023/03/12 01:08:08;;;;;;;;;;;1.10;99.90;;;;;;5020076;28;20215;-93
2023/03/12 01:10:43;;;;;;;;;;;-1.20;99.90;;;;;;5019532;28;19932;-91
2023/03/12 01:13:12;;;;;;;;;;;1.80;99.90;;;;;;5037171;28;19925;-92
2023/03/12 01:15:37;;;;;;;;;;;-2.00;99.90;;;;;;5004279;28;20359;-92
2023/03/12 01:18:03;;;;;;;;;;;1.70;99.90;;;;;;5004382;28;19925;-91
2023/03/12 01:20:29;;;;;;;;;;;-1.60;99.90;;;;;;5021419;28;19926;-92
2023/03/12 01:22:54;;;;;;;;;;;-1.40;99.90;;;;;;5023559;28;19989;-92
2023/03/12 01:25:20;;;;;;;;;;;-1.60;99.90;;;;;;5020792;28;19925;-92
2023/03/12 01:27:45;;;;;;;;;;;-1.60;99.90;;;;;;5020946;28;19925;-91
2023/03/12 01:30:11;;;;;;;;;;;1.20;99.90;;;;;;5003524;28;19925;-92
2023/03/12 01:32:37;;;;;;;;;;;-0.80;99.90;;;;;;5003646;28;19933;-92
2023/03/12 01:35:03;;;;;;;;;;;0.30;99.90;;;;;;5003609;28;19925;-92
2023/03/12 01:37:32;;;;;;;;;;;-1.60;99.90;;;;;;5036080;28;19936;-91
2023/03/12 01:40:01;;;;;;;;;;;-1.60;99.90;;;;;;5010047;28;19937;-92
2023/03/12 01:42:27;;;;;;;;;;;-1.00;99.90;;;;;;5024416;28;19929;-93
2023/03/12 01:44:54;;;;;;;;;;;1.00;99.90;;;;;;5008577;28;19932;-92
2023/03/12 01:47:19;;;;;;;;;;;1.10;99.90;;;;;;5036896;28;19932;-91
2023/03/12 01:49:47;;;;;;;;;;;0.60;99.90;;;;;;5020218;28;19940;-93
2023/03/12 01:52:14;;;;;;;;;;;-1.40;99.90;;;;;;5034145;28;19925;-92
2023/03/12 01:54:41;;;;;;;;;;;-0.70;99.90;;;;;;5057741;28;19925;-91
2023/03/12 01:57:13;;;;;;;;;;;-1.40;99.90;;;;;;5023782;28;19924;-92
2023/03/12 01:59:50;;;;;;;;;;;-1.50;99.90;;;;;;5024552;28;19925;-90
2023/03/12 02:02:25;;;;;;;;;;;-1.60;99.90;;;;;;5021867;28;19925;-91
2023/03/12 02:04:53;;;;;;;;;;;-1.30;99.90;;;;;;5023797;28;19933;-91
2023/03/12 02:07:21;;;;;;;;;;;-1.40;99.90;;;;;;5018774;28;20027;-92
2023/03/12 02:09:48;;;;;;;;;;;-1.30;99.90;;;;;;5014873;28;20400;-92
2023/03/12 02:12:16;;;;;;;;;;;-1.20;99.90;;;;;;5049749;28;19948;-92
2023/03/12 02:14:42;;;;;;;;;;;-1.30;99.90;;;;;;5018012;28;19909;-92
2023/03/12 02:17:11;;;;;;;;;;;1.70;99.90;;;;;;5021737;28;19969;-91
2023/03/12 02:19:46;;;;;;;;;;;-1.10;99.90;;;;;;5008157;28;20455;-91
2023/03/12 02:22:15;;;;;;;;;;;-1.10;99.90;;;;;;5039676;28;20455;-91
2023/03/12 02:25:04;;;;;;;;;;;-0.50;99.90;;;;;;5023274;28;19958;-92
2023/03/12 02:27:36;;;;;;;;;;;-0.40;99.90;;;;;;5009303;28;19933;-92
2023/03/12 02:30:06;;;;;;;;;;;-1.00;99.90;;;;;;5023265;28;19936;-91
2023/03/12 02:32:34;;;;;;;;;;;-3.60;99.90;;;;;;5023579;28;19926;-91
2023/03/12 02:35:00;;;;;;;;;;;-0.40;99.90;;;;;;5019440;28;19945;-93
2023/03/12 02:37:26;;;;;;;;;;;-0.90;99.90;;;;;;5005714;28;19929;-92
2023/03/12 02:40:24;;;;;;;;;;;1.10;99.90;;;;;;5020192;28;19949;-91
2023/03/12 02:42:50;;;;;;;;;;;-0.90;99.90;;;;;;5007796;28;19925;-92
2023/03/12 02:45:16;;;;;;;;;;;-0.50;99.90;;;;;;5006934;28;20515;-90
2023/03/12 02:47:42;;;;;;;;;;;-0.90;99.90;;;;;;5022922;28;20328;-92
2023/03/12 02:50:14;;;;;;;;;;;0.00;99.90;;;;;;5006724;28;19968;-92
2023/03/12 02:52:39;;;;;;;;;;;-1.00;99.90;;;;;;5037008;28;20385;-91
2023/03/12 02:55:05;;;;;;;;;;;-0.10;99.90;;;;;;5030977;28;19963;-92
2023/03/12 02:57:31;;;;;;;;;;;-0.90;99.90;;;;;;5022313;28;19999;-92
2023/03/12 02:59:57;;;;;;;;;;;-0.60;99.90;;;;;;5020724;28;19940;-92
2023/03/12 03:02:23;;;;;;;;;;;-0.30;99.90;;;;;;5003042;28;19932;-91
2023/03/12 03:04:49;;;;;;;;;;;-0.80;99.90;;;;;;5004821;28;19933;-92
2023/03/12 03:07:14;;;;;;;;;;;-0.80;99.90;;;;;;5005036;28;19925;-91
2023/03/12 03:09:40;;;;;;;;;;;-0.80;99.90;;;;;;5006420;28;19975;-92
2023/03/12 03:12:06;;;;;;;;;;;-0.80;99.90;;;;;;5002644;28;19926;-92
2023/03/12 03:14:31;;;;;;;;;;;-0.80;99.90;;;;;;5013386;28;19925;-91
2023/03/12 03:16:57;;;;;;;;;;;-0.70;99.90;;;;;;5022097;28;20393;-93
2023/03/12 03:19:26;;;;;;;;;;;-0.40;99.90;;;;;;5006396;28;19933;-91
2023/03/12 03:21:54;;;;;;;;;;;-1.30;99.90;;;;;;5022329;28;19925;-91
2023/03/12 03:24:20;;;;;;;;;;;-0.70;99.90;;;;;;5005799;28;19925;-91
2023/03/12 03:26:45;;;;;;;;;;;-0.30;99.90;;;;;;5002642;28;20005;-92
2023/03/12 03:29:11;;;;;;;;;;;-0.70;99.90;;;;;;5013530;28;19921;-91
2023/03/12 03:31:37;;;;;;;;;;;1.60;99.90;;;;;;5017018;28;19921;-92
2023/03/12 03:34:02;;;;;;;;;;;-0.70;99.90;;;;;;5019471;28;19985;-93
2023/03/12 03:36:28;;;;;;;;;;;-0.70;99.90;;;;;;5004235;28;19936;-92
2023/03/12 03:38:54;;;;;;;;;;;-0.60;99.90;;;;;;5005086;28;19979;-91
2023/03/12 03:41:20;;;;;;;;;;;-0.60;99.90;;;;;;5005776;28;19925;-93
2023/03/12 03:43:46;;;;;;;;;;;0.10;99.90;;;;;;5021519;28;19980;-93
2023/03/12 03:46:12;;;;;;;;;;;-0.60;99.90;;;;;;5022207;28;19984;-92
2023/03/12 03:48:38;;;;;;;;;;;-0.50;99.90;;;;;;5038667;28;19929;-92
2023/03/12 03:51:05;;;;;;;;;;;2.30;99.90;;;;;;5006884;28;19925;-90
2023/03/12 03:53:34;;;;;;;;;;;0.20;99.90;;;;;;5020715;28;19926;-92
2023/03/12 03:56:06;;;;;;;;;;;-0.60;99.90;;;;;;5022555;28;19971;-92
2023/03/12 03:58:35;;;;;;;;;;;-0.60;99.90;;;;;;5002036;28;19925;-91
2023/03/12 04:01:01;;;;;;;;;;;-0.60;99.90;;;;;;5013074;28;19926;-92
2023/03/12 04:03:26;;;;;;;;;;;-0.30;99.90;;;;;;5005390;28;19932;-92
2023/03/12 04:05:57;;;;;;;;;;;0.30;99.90;;;;;;5004231;28;20032;-92
2023/03/12 04:08:23;;;;;;;;;;;-0.30;99.90;;;;;;5040979;28;19924;-91
2023/03/12 04:10:54;;;;;;;;;;;0.00;99.90;;;;;;5034072;28;19931;-92
2023/03/12 04:13:20;;;;;;;;;;;3.30;99.90;;;;;;5044099;28;19990;-92
2023/03/12 04:15:50;;;;;;;;;;;-0.40;99.90;;;;;;5044450;28;19924;-92
2023/03/12 04:18:16;;;;;;;;;;;2.50;99.90;;;;;;5043768;28;19932;-92
2023/03/12 04:20:42;;;;;;;;;;;-0.40;99.90;;;;;;5028693;28;19924;-92
2023/03/12 04:23:08;;;;;;;;;;;-0.40;99.90;;;;;;5044254;28;19928;-91
2023/03/12 04:25:33;;;;;;;;;;;-0.20;99.90;;;;;;5044250;28;20518;-92
2023/03/12 04:28:00;;;;;;;;;;;2.10;99.90;;;;;;5044069;28;20327;-92
2023/03/12 04:30:25;;;;;;;;;;;-0.30;99.90;;;;;;5027920;28;19925;-92
2023/03/12 04:32:52;;;;;;;;;;;-0.20;99.90;;;;;;5029133;28;19935;-91
2023/03/12 04:35:17;;;;;;;;;;;-0.30;99.90;;;;;;5047775;28;19924;-91
2023/03/12 04:37:46;;;;;;;;;;;0.80;99.90;;;;;;5027628;28;19928;-92
2023/03/12 04:40:12;;;;;;;;;;;-0.30;99.90;;;;;;5031432;28;20310;-92
2023/03/12 04:42:38;;;;;;;;;;;-0.40;99.90;;;;;;5028919;28;19928;-92
2023/03/12 04:45:05;;;;;;;;;;;-0.30;99.90;;;;;;5049045;28;19960;-92
2023/03/12 04:47:31;;;;;;;;;;;-0.40;99.90;;;;;;5040998;28;19959;-92
2023/03/12 04:50:00;;;;;;;;;;;-0.40;99.90;;;;;;5061999;28;19920;-91
2023/03/12 04:52:25;;;;;;;;;;;0.60;99.90;;;;;;5057729;28;19931;-93
2023/03/12 04:54:54;;;;;;;;;;;-0.40;99.90;;;;;;5047355;28;20008;-92
2023/03/12 04:57:20;;;;;;;;;;;-0.40;99.90;;;;;;5044087;28;19979;-93
2023/03/12 04:59:46;;;;;;;;;;;-0.30;99.90;;;;;;5034762;28;19955;-91
2023/03/12 05:02:14;;;;;;;;;;;-0.30;99.90;;;;;;5044765;28;19929;-91
2023/03/12 05:04:40;;;;;;;;;;;-0.30;99.90;;;;;;5044537;28;20264;-92
2023/03/12 05:07:06;;;;;;;;;;;1.10;99.90;;;;;;5039638;28;20337;-94
2023/03/12 05:09:31;;;;;;;;;;;-0.30;99.90;;;;;;5020678;28;19968;-91
2023/03/12 05:11:57;;;;;;;;;;;-0.30;99.90;;;;;;5019829;28;19983;-91
2023/03/12 05:14:25;;;;;;;;;;;2.20;99.90;;;;;;5012587;28;20000;-92
2023/03/12 05:16:54;;;;;;;;;;;1.80;99.90;;;;;;5001200;28;20391;-92
2023/03/12 05:19:20;;;;;;;;;;;-2.20;99.90;;;;;;5019451;28;20071;-91
2023/03/12 05:21:45;;;;;;;;;;;0.90;99.90;;;;;;4999533;28;19930;-91
2023/03/12 05:24:11;;;;;;;;;;;-0.20;99.90;;;;;;5020637;28;19925;-91
2023/03/12 05:26:43;;;;;;;;;;;-0.20;99.90;;;;;;5019940;28;20368;-92
2023/03/12 05:29:11;;;;;;;;;;;2.00;99.90;;;;;;4994257;28;19932;-93
2023/03/12 05:31:37;;;;;;;;;;;2.30;99.90;;;;;;5017887;28;20289;-92
2023/03/12 05:34:03;;;;;;;;;;;2.20;99.90;;;;;;5036602;28;19925;-93
2023/03/12 05:36:32;;;;;;;;;;;-0.20;99.90;;;;;;5003327;28;19929;-92
2023/03/12 05:38:57;;;;;;;;;;;2.60;99.90;;;;;;5020672;28;19929;-92
2023/03/12 05:41:30;;;;;;;;;;;-0.20;99.90;;;;;;5002115;28;19932;-93
2023/03/12 05:43:56;;;;;;;;;;;-0.10;99.90;;;;;;5019982;28;19957;-91
2023/03/12 05:46:22;;;;;;;;;;;0.90;99.90;;;;;;5033023;28;20348;-91
2023/03/12 05:48:48;;;;;;;;;;;-0.10;99.90;;;;;;5035060;28;19929;-92
2023/03/12 05:51:14;;;;;;;;;;;0.00;99.90;;;;;;5004460;28;19929;-91
2023/03/12 05:53:42;;;;;;;;;;;0.20;99.90;;;;;;5005785;28;19925;-90
2023/03/12 05:56:13;;;;;;;;;;;2.50;99.90;;;;;;5007123;28;20332;-91
2023/03/12 05:58:38;;;;;;;;;;;-0.20;99.90;;;;;;5018780;28;19992;-92
2023/03/12 06:01:12;;;;;;;;;;;0.00;99.90;;;;;;5020791;28;19925;-92
2023/03/12 06:03:41;;;;;;;;;;;0.00;99.90;;;;;;5018282;28;19929;-90
2023/03/12 06:06:10;;;;;;;;;;;-0.10;99.90;;;;;;5023281;28;19925;-91
2023/03/12 06:08:39;;;;;;;;;;;0.00;99.90;;;;;;5036668;28;19926;-92
2023/03/12 06:11:11;;;;;;;;;;;0.20;99.90;;;;;;5050747;28;19921;-92
2023/03/12 06:13:37;;;;;;;;;;;2.30;99.90;;;;;;5023196;28;19926;-93
2023/03/12 06:16:17;;;;;;;;;;;0.50;99.90;;;;;;5004426;28;19940;-92
2023/03/12 06:18:43;;;;;;;;;;;0.10;99.90;;;;;;5036446;28;19925;-92
2023/03/12 06:21:19;;;;;;;;;;;1.10;99.90;;;;;;5036698;28;19993;-91
2023/03/12 06:23:45;;;;;;;;;;;0.20;99.90;;;;;;5032443;28;19924;-91
2023/03/12 06:26:11;;;;;;;;;;;0.40;99.90;;;;;;5033066;28;19925;-92
2023/03/12 06:28:37;;;;;;;;;;;0.20;99.90;;;;;;5038723;28;19931;-92
2023/03/12 06:31:03;;;;;;;;;;;0.30;99.90;;;;;;5036000;28;20024;-92
2023/03/12 06:33:29;;;;;;;;;;;0.20;99.90;;;;;;5015646;28;19925;-92
2023/03/12 06:35:57;;;;;;;;;;;0.30;99.90;;;;;;5025830;28;19925;-93
2023/03/12 06:38:26;;;;;;;;;;;0.30;99.90;;;;;;5040492;28;19992;-91
2023/03/12 06:40:59;;;;;;;;;;;0.40;99.90;;;;;;5029605;28;19925;-93
2023/03/12 06:43:31;;;;;;;;;;;0.30;99.90;;;;;;5045418;28;19936;-92
2023/03/12 06:46:01;;;;;;;;;;;0.30;99.90;;;;;;5028454;28;19925;-92
2023/03/12 06:48:28;;;;;;;;;;;1.90;99.90;;;;;;5029190;28;19974;-92
2023/03/12 06:50:59;;;;;;;;;;;0.30;99.90;;;;;;5038280;28;19925;-91
2023/03/12 06:53:28;;;;;;;;;;;1.30;99.90;;;;;;5016663;28;19956;-92
2023/03/12 06:55:53;;;;;;;;;;;0.00;99.90;;;;;;5037888;28;19931;-92
2023/03/12 06:58:22;;;;;;;;;;;0.40;99.90;;;;;;5023637;28;19969;-93
2023/03/12 07:00:48;;;;;;;;;;;0.40;99.90;;;;;;5029191;28;19934;-91
2023/03/12 07:03:13;;;;;;;;;;;0.40;99.90;;;;;;5004709;28;19945;-92
2023/03/12 07:05:45;;;;;;;;;;;0.40;99.90;;;;;;5023324;28;19925;-91
2023/03/12 07:08:11;;;;;;;;;;;0.80;99.90;;;;;;5044340;28;19925;-92
2023/03/12 07:10:37;;;;;;;;;;;0.70;99.90;;;;;;5038682;28;19943;-91
2023/03/12 07:13:02;;;;;;;;;;;0.80;99.90;;;;;;5021692;28;19925;-93
2023/03/12 07:15:28;;;;;;;;;;;0.60;99.90;;;;;;5014576;28;19929;-92
2023/03/12 07:17:53;;;;;;;;;;;0.70;99.90;;;;;;5021669;28;19943;-91
2023/03/12 07:20:19;;;;;;;;;;;0.80;99.90;;;;;;5023747;28;19972;-93
2023/03/12 07:22:48;;;;;;;;;;;0.70;99.90;;;;;;5016357;28;19929;-92
2023/03/12 07:25:13;;;;;;;;;;;0.70;99.90;;;;;;5055983;28;19929;-91
2023/03/12 07:27:39;;;;;;;;;;;0.60;99.90;;;;;;5028381;28;19981;-92
2023/03/12 07:30:08;;;;;;;;;;;0.70;99.90;;;;;;5027178;28;19925;-91
2023/03/12 07:32:39;;;;;;;;;;;0.70;99.90;;;;;;5031972;28;20262;-92
2023/03/12 07:35:05;;;;;;;;;;;0.60;99.90;;;;;;5023800;28;19987;-92
2023/03/12 07:37:34;;;;;;;;;;;0.70;99.90;;;;;;5036707;28;19925;-92
2023/03/12 07:39:59;;;;;;;;;;;1.40;99.90;;;;;;5023353;28;20272;-93
2023/03/12 07:42:26;;;;;;;;;;;0.60;99.90;;;;;;5037554;28;20364;-92
2023/03/12 07:44:54;;;;;;;;;;;0.60;99.90;;;;;;5023724;28;20015;-92
2023/03/12 07:47:20;;;;;;;;;;;-1.80;99.90;;;;;;5004832;28;19929;-93
2023/03/12 07:49:46;;;;;;;;;;;0.70;99.90;;;;;;5003931;28;19933;-93
2023/03/12 07:52:11;;;;;;;;;;;0.70;99.90;;;;;;5020513;28;19925;-93
2023/03/12 07:54:40;;;;;;;;;;;0.60;99.90;;;;;;5024365;28;20018;-93
2023/03/12 07:57:06;;;;;;;;;;;1.10;99.90;;;;;;5028251;28;19985;-92
2023/03/12 07:59:32;;;;;;;;;;;0.60;99.90;;;;;;5027484;28;19925;-92
2023/03/12 08:01:57;;;;;;;;;;;0.70;99.90;;;;;;5037618;28;19936;-92
2023/03/12 08:04:23;;;;;;;;;;;1.00;99.90;;;;;;5021675;28;19925;-94
2023/03/12 08:06:49;;;;;;;;;;;0.70;99.90;;;;;;5032826;28;19929;-94
2023/03/12 08:09:14;;;;;;;;;;;0.50;99.90;;;;;;5020124;28;19952;-93
2023/03/12 08:11:41;;;;;;;;;;;0.50;99.90;;;;;;5024856;28;19925;-91
2023/03/12 08:14:09;;;;;;;;;;;0.50;99.90;;;;;;5042760;28;19932;-93
2023/03/12 08:16:38;;;;;;;;;;;3.10;99.90;;;;;;5031787;28;20391;-95
2023/03/12 08:19:07;;;;;;;;;;;0.40;99.90;;;;;;5048119;28;19940;-92
2023/03/12 08:21:33;;;;;;;;;;;-1.70;99.90;;;;;;5038232;28;19929;-93
2023/03/12 08:24:05;;;;;;;;;;;0.50;99.90;;;;;;5020905;28;19932;-94
2023/03/12 08:26:33;;;;;;;;;;;0.40;99.90;;;;;;5028574;28;19925;-92
2023/03/12 08:29:02;;;;;;;;;;;1.40;99.90;;;;;;5022205;28;19930;-92
2023/03/12 08:31:28;;;;;;;;;;;0.70;99.90;;;;;;5055995;28;19959;-92
2023/03/12 08:33:54;;;;;;;;;;;0.50;99.90;;;;;;5022144;28;20308;-93
2023/03/12 08:36:19;;;;;;;;;;;0.40;99.90;;;;;;5025313;28;19924;-92
2023/03/12 08:38:48;;;;;;;;;;;0.50;99.90;;;;;;5029036;28;19920;-92
2023/03/12 08:41:13;;;;;;;;;;;0.50;99.90;;;;;;5055079;28;19921;-94
2023/03/12 08:43:39;;;;;;;;;;;0.70;99.90;;;;;;5035501;28;19913;-93
2023/03/12 08:46:05;;;;;;;;;;;0.70;99.90;;;;;;5025902;28;20016;-93
2023/03/12 08:48:31;;;;;;;;;;;0.80;99.90;;;;;;5022648;28;19925;-94
2023/03/12 08:51:02;;;;;;;;;;;0.80;99.90;;;;;;5041328;28;20433;-93
2023/03/12 08:53:32;;;;;;;;;;;-0.10;99.90;;;;;;5023712;28;19924;-91
2023/03/12 08:56:01;;;;;;;;;;;0.80;99.90;;;;;;5042899;28;20015;-93
2023/03/12 08:58:26;;;;;;;;;;;0.90;99.90;;;;;;5022815;28;20007;-92
2023/03/12 09:00:55;;;;;;;;;;;0.80;99.90;;;;;;5040062;28;19929;-91
2023/03/12 09:03:21;;;;;;;;;;;1.00;99.90;;;;;;5037425;28;19924;-93
2023/03/12 09:05:47;;;;;;;;;;;1.00;99.90;;;;;;5044597;28;19992;-92
2023/03/12 09:08:13;;;;;;;;;;;1.00;99.90;;;;;;5034682;28;19925;-92
2023/03/12 09:10:40;;;;;;;;;;;1.10;99.90;;;;;;5030696;28;19932;-92
2023/03/12 09:13:06;;;;;;;;;;;-0.50;99.90;;;;;;5030938;28;19947;-94
2023/03/12 09:15:32;;;;;;;;;;;1.10;99.90;;;;;;5006475;28;19957;-92
2023/03/12 09:17:57;;;;;;;;;;;1.90;99.90;;;;;;5029901;28;19976;-94
2023/03/12 09:20:26;;;;;;;;;;;1.10;99.90;;;;;;5008354;28;19929;-94
2023/03/12 09:22:52;;;;;;;;;;;2.20;99.90;;;;;;5030843;28;19925;-93
2023/03/12 09:25:22;;;;;;;;;;;1.30;99.90;;;;;;5009356;28;19955;-93
2023/03/12 09:27:50;;;;;;;;;;;0.60;99.90;;;;;;5015676;28;19930;-94
2023/03/12 09:30:18;;;;;;;;;;;1.10;99.90;;;;;;5021694;28;20718;-94
2023/03/12 09:32:46;;;;;;;;;;;1.10;99.90;;;;;;5033211;28;20328;-94
2023/03/12 09:35:13;;;;;;;;;;;1.10;99.90;;;;;;5022304;28;19972;-95
2023/03/12 09:37:42;;;;;;;;;;;1.20;99.90;;;;;;5037962;28;20485;-95
2023/03/12 09:40:14;;;;;;;;;;;2.80;99.90;;;;;;5024091;28;19933;-95
2023/03/12 09:42:49;;;;;;;;;;;1.20;99.90;;;;;;5026571;28;19925;-94
2023/03/12 09:45:25;;;;;;;;;;;0.70;99.90;;;;;;5019789;28;19925;-93
2023/03/12 09:47:52;;;;;;;;;;;-0.20;99.90;;;;;;5022819;28;19965;-94
2023/03/12 09:50:21;;;;;;;;;;;1.00;99.90;;;;;;5021661;28;19936;-92
2023/03/12 09:52:56;;;;;;;;;;;1.00;99.90;;;;;;5026903;28;19932;-93
2023/03/12 09:55:22;;;;;;;;;;;1.00;99.90;;;;;;5041891;28;19927;-94
2023/03/12 09:57:51;;;;;;;;;;;-1.00;99.90;;;;;;5041680;28;19928;-94
2023/03/12 10:00:28;;;;;;;;;;;1.30;99.90;;;;;;5015660;28;20211;-94
2023/03/12 10:02:54;;;;;;;;;;;1.00;99.90;;;;;;5054652;28;19924;-94
2023/03/12 10:05:43;;;;;;;;;;;1.00;99.90;;;;;;5025730;28;19925;-94
2023/03/12 10:08:28;;;;;;;;;;;1.20;99.90;;;;;;5031344;28;19960;-93
2023/03/12 10:10:57;;;;;;;;;;;1.50;99.90;;;;;;5033526;28;19947;-95
2023/03/12 10:13:29;;;;;;;;;;;1.50;99.90;;;;;;5031050;28;19926;-95
2023/03/12 10:16:06;;;;;;;;;;;3.10;99.90;;;;;;5030806;28;19933;-95
2023/03/12 10:18:38;;;;;;;;;;;1.70;99.90;;;;;;5035271;28;19926;-96
2023/03/12 10:21:30;;;;;;;;;;;-1.10;99.90;;;;;;5035388;28;19925;-96
2023/03/12 10:24:21;;;;;;;;;;;2.00;99.90;;;;;;5026507;28;20008;-95
2023/03/12 10:26:57;;;;;;;;;;;2.60;99.90;;;;;;5024271;28;19965;-94
2023/03/12 10:29:43;;;;;;;;;;;4.60;99.90;;;;;;5027283;28;19925;-95
2023/03/12 10:32:25;;;;;;;;;;;1.60;99.90;;;;;;5038239;28;19925;-94
2023/03/12 10:34:58;;;;;;;;;;;1.60;99.90;;;;;;5034168;28;19925;-94
2023/03/12 10:37:29;;;;;;;;;;;1.70;99.90;;;;;;5032560;28;19936;-95
2023/03/12 10:40:01;;;;;;;;;;;1.70;99.90;;;;;;5021107;28;19926;-94
2023/03/12 10:42:29;;;;;;;;;;;0.60;99.90;;;;;;5025027;28;19961;-94
2023/03/12 10:45:04;;;;;;;;;;;1.80;99.90;;;;;;5034599;28;19932;-93
2023/03/12 10:47:37;;;;;;;;;;;2.20;99.90;;;;;;5030333;28;19925;-95
2023/03/12 10:50:15;;;;;;;;;;;2.30;99.90;;;;;;5032768;28;19925;-96
2023/03/12 10:52:42;;;;;;;;;;;5.20;99.90;;;;;;5023483;28;19936;-93
2023/03/12 10:55:33;;;;;;;;;;;2.10;99.90;;;;;;5030361;28;20033;-95
2023/03/12 10:58:22;;;;;;;;;;;2.10;99.90;;;;;;5028023;28;19963;-95
2023/03/12 11:00:58;;;;;;;;;;;2.20;99.90;;;;;;5048987;28;19929;-95
2023/03/12 11:03:27;;;;;;;;;;;4.30;99.90;;;;;;5024487;28;19925;-95
2023/03/12 11:05:55;;;;;;;;;;;2.20;99.90;;;;;;5022993;28;19972;-94
2023/03/12 11:08:26;;;;;;;;;;;2.30;99.90;;;;;;5023947;28;19984;-93
2023/03/12 11:10:51;;;;;;;;;;;3.50;99.90;;;;;;5029802;28;19981;-94
2023/03/12 11:13:20;;;;;;;;;;;2.20;99.90;;;;;;5042868;28;19932;-96
2023/03/12 11:15:46;;;;;;;;;;;2.20;99.90;;;;;;5026050;28;19965;-95
2023/03/12 11:18:15;;;;;;;;;;;2.30;99.90;;;;;;4995196;28;20118;-94
2023/03/12 11:20:57;;;;;;;;;;;;;;;;;;;;;
2023/03/12 11:23:28;;;;;;;;;;;2.80;99.90;;;;;;5030593;28;19980;-95
2023/03/12 11:26:10;;;;;;;;;;;2.30;99.90;;;;;;5035956;28;19932;-95
2023/03/12 11:28:56;;;;;;;;;;;2.30;99.90;;;;;;5016857;28;19925;-93
2023/03/12 11:31:24;;;;;;;;;;;3.80;99.90;;;;;;5001990;28;20008;-95
2023/03/12 11:33:54;;;;;;;;;;;2.50;99.90;;;;;;5019018;28;19949;-91
2023/03/12 11:36:39;;;;;;;;;;;4.90;99.90;;;;;;5011520;28;19933;-96
2023/03/12 11:39:16;;;;;;;;;;;2.50;99.90;;;;;;5032057;28;20020;-96
2023/03/12 11:42:02;;;;;;;;;;;2.60;99.90;;;;;;5017713;28;19926;-92
2023/03/12 11:44:57;;;;;;;;;;;2.90;99.90;;;;;;5020374;28;20443;-94
2023/03/12 11:47:32;;;;;;;;;;;3.00;99.90;;;;;;4992948;28;19971;-92
2023/03/12 11:50:07;;;;;;;;;;;2.90;99.90;;;;;;5021709;28;19937;-95
2023/03/12 11:53:09;;;;;;;;;;;2.90;99.90;;;;;;5007552;28;19925;-94
2023/03/12 11:55:44;;;;;;;;;;;3.00;99.90;;;;;;5019944;28;19925;-94
2023/03/12 11:58:39;;;;;;;;;;;3.10;99.90;;;;;;5016185;28;19936;-92
2023/03/12 12:01:23;;;;;;;;;;;3.10;99.90;;;;;;4988764;28;19925;-95
2023/03/12 12:03:58;;;;;;;;;;;3.30;99.90;;;;;;5034575;28;19925;-93
2023/03/12 12:06:45;;;;;;;;;;;3.80;99.90;;;;;;5019132;28;19927;-94
2023/03/12 12:09:26;;;;;;;;;;;3.80;99.90;;;;;;5020084;28;19925;-94
2023/03/12 12:11:53;;;;;;;;;;;3.40;99.90;;;;;;5044892;28;19926;-93
2023/03/12 12:14:37;;;;;;;;;;;3.60;99.90;;;;;;5021326;28;20269;-94
2023/03/12 12:17:30;;;;;;;;;;;3.40;99.90;;;;;;5022426;28;19933;-94
2023/03/12 12:20:14;;;;;;;;;;;3.50;99.90;;;;;;4986390;28;19971;-94
2023/03/12 12:23:02;;;;;;;;;;;3.70;99.90;;;;;;5017283;28;19932;-94
2023/03/12 12:25:46;;;;;;;;;;;3.80;99.90;;;;;;5020345;28;19935;-94
2023/03/12 12:28:31;;;;;;;;;;;4.00;99.90;;;;;;5042367;28;19920;-96
2023/03/12 12:31:00;;;;;;;;;;;4.20;99.90;;;;;;5065043;28;19949;-94
2023/03/12 12:33:26;;;;;;;;;;;4.00;99.90;;;;;;5021640;28;20360;-94
2023/03/12 12:35:52;;;;;;;;;;;4.20;99.90;;;;;;5039006;28;19933;-95
2023/03/12 12:38:41;;;;;;;;;;;4.10;99.90;;;;;;5033023;28;19929;-94
2023/03/12 12:41:13;;;;;;;;;;;4.40;99.90;;;;;;5039202;28;19925;-94
2023/03/12 12:43:52;;;;;;;;;;;4.40;99.90;;;;;;5018500;28;20441;-95
2023/03/12 12:46:21;;;;;;;;;;;2.40;99.90;;;;;;5038697;28;19929;-96
2023/03/12 12:49:00;;;;;;;;;;;4.40;99.90;;;;;;5019555;28;19932;-94
2023/03/12 12:51:31;;;;;;;;;;;4.50;99.90;;;;;;5031560;28;20008;-95
2023/03/12 12:54:30;;;;;;;;;;;6.10;99.90;;;;;;5015507;28;19925;-94
2023/03/12 12:57:12;;;;;;;;;;;4.80;99.90;;;;;;4960568;28;19926;-93
2023/03/12 12:59:44;;;;;;;;;;;5.00;99.90;;;;;;5019771;28;19929;-93
2023/03/12 13:02:18;;;;;;;;;;;5.10;99.90;;;;;;5033851;28;19925;-95
2023/03/12 13:04:43;;;;;;;;;;;5.10;99.90;;;;;;5022252;28;19948;-94
2023/03/12 13:07:12;;;;;;;;;;;5.50;99.90;;;;;;5024107;28;20028;-96
2023/03/12 13:10:04;;;;;;;;;;;5.50;99.90;;;;;;5045284;28;20003;-94
2023/03/12 13:12:49;;;;;;;;;;;5.60;99.90;;;;;;4997824;28;19925;-94
2023/03/12 13:15:26;;;;;;;;;;;9.10;99.90;;;;;;5077788;28;19924;-96
2023/03/12 13:18:01;;;;;;;;;;;5.70;99.90;;;;;;5051749;28;19925;-94
2023/03/12 13:20:50;;;;;;;;;;;6.00;99.90;;;;;;5051946;28;19932;-95
2023/03/12 13:23:24;;;;;;;;;;;6.20;99.90;;;;;;5015611;28;20348;-93
2023/03/12 13:26:09;;;;;;;;;;;8.10;99.90;;;;;;5028189;28;19931;-94
2023/03/12 13:28:58;;;;;;;;;;;7.50;99.90;;;;;;5056104;28;19925;-93
2023/03/12 13:31:26;;;;;;;;;;;6.50;99.90;;;;;;5048740;28;19994;-93
2023/03/12 13:33:56;;;;;;;;;;;6.70;99.90;;;;;;5051834;28;19980;-95
2023/03/12 13:36:27;;;;;;;;;;;6.90;99.90;;;;;;5043274;28;19928;-94
2023/03/12 13:39:16;;;;;;;;;;;6.60;99.90;;;;;;5042087;28;20309;-93
2023/03/12 13:41:44;;;;;;;;;;;6.70;99.90;;;;;;5055968;28;19976;-93
2023/03/12 13:44:36;;;;;;;;;;;5.20;99.90;;;;;;5074469;28;19920;-93
2023/03/12 13:47:10;;;;;;;;;;;6.90;99.90;;;;;;5067210;28;20370;-93
2023/03/12 13:49:44;;;;;;;;;;;7.10;99.90;;;;;;5074723;28;19920;-96
2023/03/12 13:52:10;;;;;;;;;;;7.10;99.90;;;;;;5064944;28;20000;-94
2023/03/12 13:54:43;;;;;;;;;;;7.10;99.90;;;;;;5049948;28;19924;-94
2023/03/12 13:57:10;;;;;;;;;;;6.00;99.90;;;;;;5052268;28;19925;-94
2023/03/12 13:59:42;;;;;;;;;;;7.40;99.90;;;;;;5049051;28;19924;-94
2023/03/12 14:02:22;;;;;;;;;;;7.60;99.90;;;;;;5055513;28;20019;-95
2023/03/12 14:04:47;;;;;;;;;;;6.60;99.90;;;;;;5047003;28;19956;-95
2023/03/12 14:07:16;;;;;;;;;;;7.30;99.90;;;;;;5047853;28;19925;-94
2023/03/12 14:09:42;;;;;;;;;;;9.30;99.90;;;;;;5046021;28;19946;-94
2023/03/12 14:12:32;;;;;;;;;;;7.90;99.90;;;;;;5057833;28;19940;-93
2023/03/12 14:14:58;;;;;;;;;;;7.60;99.90;;;;;;5059893;28;19967;-93
2023/03/12 14:17:30;;;;;;;;;;;7.70;99.90;;;;;;5065725;28;19924;-94
2023/03/12 14:20:01;;;;;;;;;;;6.50;99.90;;;;;;5046527;28;19985;-94
2023/03/12 14:22:31;;;;;;;;;;;8.00;99.90;;;;;;5049967;28;20363;-93
2023/03/12 14:25:00;;;;;;;;;;;7.50;99.90;;;;;;5047165;28;19925;-94
2023/03/12 14:27:28;;;;;;;;;;;7.60;99.90;;;;;;5048311;28;19936;-95
2023/03/12 14:30:16;;;;;;;;;;;6.10;99.90;;;;;;5063691;28;19935;-95
2023/03/12 14:32:46;;;;;;;;;;;8.10;99.90;;;;;;5060577;28;19932;-93
2023/03/12 14:35:32;;;;;;;;;;;5.80;99.90;;;;;;5063571;28;19925;-96
2023/03/12 14:38:04;;;;;;;;;;;8.10;99.90;;;;;;5046478;28;19967;-95
2023/03/12 14:40:39;;;;;;;;;;;7.80;99.90;;;;;;5063094;28;19925;-94
2023/03/12 14:43:27;;;;;;;;;;;7.90;99.90;;;;;;5052024;28;20011;-94
2023/03/12 14:46:06;;;;;;;;;;;7.90;99.90;;;;;;5066819;28;20423;-95